Terminal Aerodrome Forecast
Issued by NWS

Home | Current Version | Previous Version | Text Only | Print | Product List | Glossary On
Versions: 1 2 3 4 5 6 7 8 9 10 11 12 13 14 15 16
000
FTUS44 KLZK 300539
TAFADF
TAF
KADF 300539Z 3006/3106 00000KT P6SM SCT080
     FM300900 00000KT P6SM SKC
      TEMPO 3009/3013 3SM BR
     FM301500 08009KT P6SM SCT250
     FM310000 08005KT P6SM SCT250=

USA.gov is the U.S. government's official web portal to all federal, state and local government web resources and services.